createdAt,value
2018-06-27T00:02:48.781Z,18.90
2018-06-27T00:06:14.606Z,18.89
2018-06-27T00:09:39.991Z,18.85
2018-06-27T00:13:04.937Z,18.84
2018-06-27T00:16:29.798Z,18.75
2018-06-27T00:19:54.553Z,18.81
2018-06-27T00:23:19.058Z,18.73
2018-06-27T00:26:43.859Z,18.61
2018-06-27T00:30:08.658Z,18.79
2018-06-27T00:33:33.328Z,18.52
2018-06-27T00:36:58.060Z,18.37
2018-06-27T00:40:23.763Z,18.57
2018-06-27T00:43:48.525Z,18.38
2018-06-27T00:47:13.194Z,18.41
2018-06-27T00:50:38.104Z,18.38
2018-06-27T00:54:06.899Z,18.24
2018-06-27T00:57:31.555Z,18.33
2018-06-27T01:00:56.251Z,18.28
2018-06-27T01:04:21.010Z,18.20
2018-06-27T01:07:45.849Z,18.22
2018-06-27T01:11:10.647Z,18.12
2018-06-27T01:14:35.387Z,18.15
2018-06-27T01:18:00.085Z,18.08
2018-06-27T01:21:24.838Z,18.19
2018-06-27T01:24:49.455Z,18.15
2018-06-27T01:28:14.243Z,18.00
2018-06-27T01:31:38.967Z,18.06
2018-06-27T01:35:03.644Z,17.98
2018-06-27T01:38:28.367Z,17.84
2018-06-27T01:41:53.136Z,17.99
2018-06-27T01:45:17.876Z,17.78
2018-06-27T01:48:42.631Z,17.78
2018-06-27T01:52:07.342Z,17.80
2018-06-27T01:55:32.166Z,17.92
2018-06-27T01:58:56.968Z,17.69
2018-06-27T02:02:21.855Z,17.71
2018-06-27T02:05:46.591Z,17.81
2018-06-27T02:09:11.775Z,17.79
2018-06-27T02:12:36.485Z,17.64
2018-06-27T02:16:01.279Z,17.68
2018-06-27T02:19:26.000Z,17.61
2018-06-27T02:22:50.757Z,17.58
2018-06-27T02:26:15.661Z,17.58
2018-06-27T02:29:40.461Z,17.65
2018-06-27T02:33:05.269Z,17.51
2018-06-27T02:36:29.961Z,17.45
2018-06-27T02:39:54.636Z,17.55
2018-06-27T02:43:19.668Z,17.63
2018-06-27T02:46:44.391Z,17.48
2018-06-27T02:50:09.090Z,17.61
2018-06-27T02:53:37.579Z,17.48
2018-06-27T02:57:02.442Z,17.41
2018-06-27T03:00:27.264Z,17.40
2018-06-27T03:03:52.112Z,17.39
2018-06-27T03:07:16.810Z,17.41
2018-06-27T03:10:41.663Z,17.37
2018-06-27T03:14:06.665Z,17.31
2018-06-27T03:17:32.686Z,17.41
2018-06-27T03:20:57.593Z,17.17
2018-06-27T03:24:22.039Z,17.22
2018-06-27T03:27:47.799Z,17.23
2018-06-27T03:31:12.701Z,17.31
2018-06-27T03:34:37.605Z,17.08
2018-06-27T03:38:02.145Z,16.97
2018-06-27T03:41:27.162Z,16.88
2018-06-27T03:44:52.213Z,16.80
2018-06-27T03:48:17.229Z,16.81
2018-06-27T03:51:42.231Z,16.58
2018-06-27T03:55:07.112Z,16.73
2018-06-27T03:58:31.967Z,16.66
2018-06-27T04:01:56.897Z,16.77
2018-06-27T04:05:21.850Z,16.69
2018-06-27T04:08:47.973Z,16.66
2018-06-27T04:12:12.937Z,16.76
2018-06-27T04:15:38.888Z,16.75
2018-06-27T04:19:03.741Z,16.67
2018-06-27T04:22:33.169Z,16.81
2018-06-27T04:25:58.036Z,16.86
2018-06-27T04:29:22.773Z,16.94
2018-06-27T04:32:47.512Z,16.94
2018-06-27T04:36:12.320Z,16.99
2018-06-27T04:39:37.927Z,16.91
2018-06-27T04:43:02.411Z,16.99
2018-06-27T04:46:27.354Z,17.09
2018-06-27T04:49:53.500Z,17.00
2018-06-27T04:53:18.327Z,16.83
2018-06-27T04:56:43.201Z,16.95
2018-06-27T05:00:08.159Z,17.09
2018-06-27T05:03:32.911Z,17.45
2018-06-27T05:07:00.531Z,17.21
2018-06-27T05:10:25.509Z,17.22
2018-06-27T05:13:50.589Z,17.34
2018-06-27T05:17:15.339Z,17.31
2018-06-27T05:20:40.136Z,17.28
2018-06-27T05:24:06.805Z,17.52
2018-06-27T05:27:31.963Z,17.54
2018-06-27T05:30:59.716Z,17.85
2018-06-27T05:34:24.787Z,17.64
2018-06-27T05:37:49.801Z,17.56
2018-06-27T05:41:14.767Z,17.79
2018-06-27T05:44:39.912Z,17.57
2018-06-27T05:48:04.944Z,17.83
2018-06-27T05:51:30.253Z,17.87
2018-06-27T05:55:00.151Z,17.79
2018-06-27T05:58:29.946Z,17.62
2018-06-27T06:01:57.983Z,17.81
2018-06-27T06:05:24.060Z,17.99
2018-06-27T06:08:49.191Z,17.89
2018-06-27T06:12:14.343Z,18.24
2018-06-27T06:15:39.566Z,18.16
2018-06-27T06:19:04.641Z,18.16
2018-06-27T06:22:30.904Z,17.95
2018-06-27T06:25:55.477Z,17.96
2018-06-27T06:29:20.445Z,18.44
2018-06-27T06:32:45.594Z,18.40
2018-06-27T06:36:10.607Z,18.67
2018-06-27T06:39:35.404Z,18.50
2018-06-27T06:43:00.057Z,18.52
2018-06-27T06:46:25.044Z,18.57
2018-06-27T06:49:50.337Z,18.69
2018-06-27T06:53:16.441Z,18.74
2018-06-27T06:56:41.449Z,18.90
2018-06-27T07:00:06.762Z,19.01
2018-06-27T07:03:31.673Z,18.85
2018-06-27T07:06:57.716Z,19.31
2018-06-27T07:10:22.805Z,19.63
2018-06-27T07:13:47.753Z,19.79
2018-06-27T07:17:12.379Z,20.06
2018-06-27T07:20:37.321Z,20.02
2018-06-27T07:24:02.506Z,19.84
2018-06-27T07:27:27.562Z,19.98
2018-06-27T07:30:52.572Z,19.93
2018-06-27T07:34:17.767Z,20.11
2018-06-27T07:37:42.700Z,20.23
2018-06-27T07:41:07.772Z,20.72
2018-06-27T07:44:32.848Z,20.51
2018-06-27T07:47:57.739Z,20.63
2018-06-27T07:51:22.318Z,20.76
2018-06-27T07:54:47.318Z,20.77
2018-06-27T07:58:13.662Z,20.81
2018-06-27T08:01:38.676Z,21.10
2018-06-27T08:05:03.663Z,21.33
2018-06-27T08:08:28.782Z,21.36
2018-06-27T08:11:53.579Z,21.66
2018-06-27T08:15:19.542Z,21.72
2018-06-27T08:18:45.061Z,21.92
2018-06-27T08:22:10.215Z,22.03
2018-06-27T08:25:35.320Z,21.98
2018-06-27T08:29:00.304Z,22.17
2018-06-27T08:32:25.427Z,21.92
2018-06-27T08:35:50.194Z,22.25
2018-06-27T08:39:15.282Z,22.09
2018-06-27T08:42:39.860Z,22.80
2018-06-27T08:46:04.989Z,22.65
2018-06-27T08:49:29.970Z,23.04
2018-06-27T08:52:54.988Z,23.18
2018-06-27T08:56:19.972Z,22.65
2018-06-27T08:59:45.198Z,22.70
2018-06-27T09:03:10.017Z,22.86
2018-06-27T09:06:34.841Z,22.95
2018-06-27T09:09:59.973Z,23.30
2018-06-27T09:13:24.903Z,22.94
2018-06-27T09:16:49.971Z,22.91
2018-06-27T09:20:14.888Z,22.98
2018-06-27T09:23:39.882Z,22.80
2018-06-27T09:27:04.734Z,23.18
2018-06-27T09:30:30.539Z,22.99
2018-06-27T09:33:55.542Z,22.98
2018-06-27T09:37:20.390Z,23.28
2018-06-27T09:40:45.306Z,23.55
2018-06-27T09:44:10.310Z,23.66
2018-06-27T09:47:35.141Z,23.66
2018-06-27T09:50:59.888Z,23.37
2018-06-27T09:54:25.706Z,23.61
2018-06-27T09:57:50.187Z,23.75
2018-06-27T10:01:15.016Z,23.78
2018-06-27T10:04:40.050Z,23.96
2018-06-27T10:08:05.941Z,23.82
2018-06-27T10:11:31.527Z,24.23
2018-06-27T10:14:56.499Z,24.11
2018-06-27T10:18:21.871Z,24.13
2018-06-27T10:21:47.225Z,24.15
2018-06-27T10:25:12.336Z,24.89
2018-06-27T10:28:38.558Z,24.52
2018-06-27T10:32:03.457Z,24.40
2018-06-27T10:35:29.535Z,24.28
2018-06-27T10:38:54.427Z,24.79
2018-06-27T10:42:19.291Z,24.97
2018-06-27T10:45:43.842Z,25.55
2018-06-27T10:49:08.568Z,24.65
2018-06-27T10:52:33.516Z,24.80
2018-06-27T10:55:58.396Z,25.10
2018-06-27T10:59:23.058Z,25.05
2018-06-27T11:02:47.900Z,24.88
2018-06-27T11:06:12.815Z,25.80
2018-06-27T11:09:37.437Z,25.47
2018-06-27T11:13:04.504Z,25.33
2018-06-27T11:16:30.111Z,25.65
2018-06-27T11:19:55.980Z,25.51
2018-06-27T11:23:23.894Z,25.49
2018-06-27T11:26:49.344Z,25.30
2018-06-27T11:30:16.578Z,25.38
2018-06-27T11:33:42.941Z,25.48
2018-06-27T11:37:07.811Z,25.29
2018-06-27T11:40:33.430Z,25.30
2018-06-27T11:43:59.970Z,25.76
2018-06-27T11:47:24.901Z,25.01
2018-06-27T11:50:50.712Z,25.44
2018-06-27T11:54:16.255Z,25.37
2018-06-27T11:57:43.887Z,25.60
2018-06-27T12:01:08.683Z,25.16
2018-06-27T12:04:33.202Z,25.30
2018-06-27T12:07:58.640Z,25.93
2018-06-27T12:11:24.112Z,25.81
2018-06-27T12:14:48.867Z,26.23
2018-06-27T12:18:13.657Z,27.00
2018-06-27T12:21:39.436Z,26.46
2018-06-27T12:25:04.195Z,26.27
2018-06-27T12:28:29.524Z,26.39
2018-06-27T12:31:54.355Z,26.59
2018-06-27T12:35:20.192Z,26.72
2018-06-27T12:38:46.961Z,26.67
2018-06-27T12:42:11.884Z,26.77
2018-06-27T12:45:36.749Z,26.67
2018-06-27T12:49:01.656Z,27.38
2018-06-27T12:52:26.539Z,26.94
2018-06-27T12:55:51.508Z,26.89
2018-06-27T12:59:16.565Z,27.11
2018-06-27T13:02:41.665Z,27.19
2018-06-27T13:06:11.769Z,27.90
2018-06-27T13:09:36.599Z,27.44
2018-06-27T13:13:01.526Z,26.88
2018-06-27T13:16:26.606Z,27.63
2018-06-27T13:19:51.440Z,27.59
2018-06-27T13:23:16.391Z,27.59
2018-06-27T13:26:41.427Z,27.43
2018-06-27T13:30:06.847Z,26.95
2018-06-27T13:33:32.057Z,27.02
2018-06-27T13:36:56.958Z,27.00
2018-06-27T13:40:22.187Z,27.45
2018-06-27T13:43:47.230Z,26.79
2018-06-27T13:47:13.110Z,26.60
2018-06-27T13:50:37.985Z,27.11
2018-06-27T13:54:02.962Z,27.68
2018-06-27T13:57:28.948Z,27.81
2018-06-27T14:00:53.724Z,27.69
2018-06-27T14:04:18.421Z,27.50
2018-06-27T14:07:43.236Z,27.58
2018-06-27T14:11:08.035Z,26.86
2018-06-27T14:14:32.899Z,26.60
2018-06-27T14:17:58.054Z,26.37
2018-06-27T14:21:22.938Z,26.61
2018-06-27T14:24:47.863Z,27.40
2018-06-27T14:28:13.394Z,27.62
2018-06-27T14:36:14.773Z,27.22
2018-06-27T14:39:44.640Z,27.02
2018-06-27T14:43:10.562Z,26.69
2018-06-27T14:46:36.119Z,27.26
2018-06-27T14:50:00.516Z,27.35
2018-06-27T14:53:24.886Z,27.97
2018-06-27T14:56:49.664Z,28.27
2018-06-27T15:00:14.562Z,28.48
2018-06-27T15:03:39.371Z,28.33
2018-06-27T15:07:04.494Z,29.49
2018-06-27T15:10:29.402Z,28.56
2018-06-27T15:13:53.872Z,28.08
2018-06-27T15:17:18.778Z,27.05
2018-06-27T15:20:43.885Z,27.13
2018-06-27T15:24:08.714Z,28.19
2018-06-27T15:27:33.756Z,27.77
2018-06-27T15:30:58.700Z,27.22
2018-06-27T15:34:23.614Z,27.12
2018-06-27T15:37:48.503Z,26.73
2018-06-27T15:41:14.341Z,26.61
2018-06-27T15:44:39.208Z,26.04
2018-06-27T15:48:04.154Z,26.10
2018-06-27T15:51:29.046Z,25.47
2018-06-27T15:54:53.852Z,25.72
2018-06-27T15:58:18.599Z,25.51
2018-06-27T16:01:43.487Z,25.58
2018-06-27T16:05:08.075Z,25.50
2018-06-27T16:08:33.263Z,26.95
2018-06-27T16:11:57.968Z,28.10
2018-06-27T16:15:22.776Z,28.19
2018-06-27T16:18:47.466Z,26.89
2018-06-27T16:22:11.944Z,27.61
2018-06-27T16:25:36.760Z,27.15
2018-06-27T16:29:01.556Z,26.51
2018-06-27T16:32:26.314Z,26.06
2018-06-27T16:35:51.439Z,25.78
2018-06-27T16:39:16.308Z,25.48
2018-06-27T16:42:41.283Z,25.36
2018-06-27T16:46:06.340Z,24.96
2018-06-27T16:49:31.195Z,25.14
2018-06-27T16:52:56.231Z,25.30
2018-06-27T16:56:21.145Z,25.24
2018-06-27T16:59:46.276Z,25.25
2018-06-27T17:03:11.113Z,24.96
2018-06-27T17:06:37.315Z,25.36
2018-06-27T17:10:02.057Z,25.07
2018-06-27T17:13:26.920Z,25.75
2018-06-27T17:16:51.477Z,25.42
2018-06-27T17:20:17.096Z,26.12
2018-06-27T17:23:44.319Z,25.95
2018-06-27T17:27:09.167Z,25.49
2018-06-27T17:30:34.806Z,25.31
2018-06-27T17:33:59.742Z,24.70
2018-06-27T17:37:24.967Z,24.85
2018-06-27T17:40:49.755Z,25.28
2018-06-27T17:44:14.752Z,25.44
2018-06-27T17:47:39.626Z,25.89
2018-06-27T17:51:04.674Z,26.02
2018-06-27T17:54:30.200Z,26.59
2018-06-27T17:57:55.027Z,26.34
2018-06-27T18:01:21.223Z,26.65
2018-06-27T18:04:46.210Z,26.48
2018-06-27T18:08:10.971Z,26.16
2018-06-27T18:11:36.105Z,26.61
2018-06-27T18:15:00.846Z,26.45
2018-06-27T18:18:25.711Z,26.03
2018-06-27T18:21:50.559Z,26.23
2018-06-27T18:25:15.762Z,26.16
2018-06-27T18:28:43.504Z,26.27
2018-06-27T18:32:08.444Z,26.27
2018-06-27T18:35:33.499Z,25.95
2018-06-27T18:38:58.971Z,25.57
2018-06-27T18:42:24.641Z,24.85
2018-06-27T18:45:50.643Z,24.80
2018-06-27T18:49:15.407Z,24.36
2018-06-27T18:52:40.808Z,24.51
2018-06-27T18:56:05.357Z,24.10
2018-06-27T18:59:31.381Z,24.10
2018-06-27T19:02:56.290Z,24.07
2018-06-27T19:06:21.348Z,23.84
2018-06-27T19:09:46.577Z,23.80
2018-06-27T19:13:11.733Z,23.64
2018-06-27T19:16:41.044Z,23.66
2018-06-27T19:20:07.420Z,23.42
2018-06-27T19:23:32.085Z,23.25
2018-06-27T19:26:56.899Z,23.12
2018-06-27T19:30:21.350Z,23.12
2018-06-27T19:33:46.147Z,22.92
2018-06-27T19:37:10.813Z,22.98
2018-06-27T19:40:36.114Z,22.92
2018-06-27T19:44:01.026Z,22.82
2018-06-27T19:47:26.751Z,22.90
2018-06-27T19:50:51.557Z,22.75
2018-06-27T19:54:16.300Z,22.58
2018-06-27T19:57:41.057Z,22.54
2018-06-27T20:01:06.760Z,22.41
2018-06-27T20:04:31.176Z,22.33
2018-06-27T20:07:56.153Z,22.23
2018-06-27T20:11:20.665Z,22.21
2018-06-27T20:14:45.521Z,22.04
2018-06-27T20:18:10.152Z,22.08
2018-06-27T20:21:35.027Z,21.93
2018-06-27T21:47:59.018Z,20.49
2018-06-27T21:51:23.745Z,20.48
2018-06-27T21:54:48.418Z,20.37
2018-06-27T21:58:14.398Z,20.43
2018-06-27T22:01:39.117Z,20.36
2018-06-27T22:05:03.975Z,20.31
2018-06-27T22:08:28.342Z,20.33
2018-06-27T22:11:53.194Z,20.14
2018-06-27T22:15:18.105Z,20.12
2018-06-27T22:18:43.194Z,20.00
2018-06-27T22:22:07.978Z,19.92
2018-06-27T22:25:32.803Z,19.99
2018-06-27T22:28:57.590Z,19.98
2018-06-27T22:32:22.375Z,20.06
2018-06-27T22:35:47.155Z,19.85
2018-06-27T22:39:12.341Z,19.98
2018-06-27T22:42:37.069Z,19.81
2018-06-27T22:46:01.846Z,19.69
2018-06-27T22:49:26.581Z,19.70
2018-06-27T22:52:51.462Z,19.57
2018-06-27T22:56:16.160Z,19.51
2018-06-27T22:59:40.946Z,19.46
2018-06-27T23:03:05.363Z,19.30
2018-06-27T23:06:30.143Z,19.29
2018-06-27T23:09:54.838Z,19.18
2018-06-27T23:13:19.517Z,19.19
2018-06-27T23:16:44.144Z,19.25
2018-06-27T23:20:08.991Z,19.19
2018-06-27T23:23:33.756Z,19.00
2018-06-27T23:26:58.509Z,19.04
2018-06-27T23:30:22.475Z,19.03
2018-06-27T23:33:47.244Z,18.98
2018-06-27T23:37:11.241Z,19.04
2018-06-27T23:40:35.145Z,19.04
2018-06-27T23:43:59.174Z,18.81
2018-06-27T23:47:23.151Z,18.76
2018-06-27T23:50:47.128Z,18.82
2018-06-27T23:54:11.782Z,18.83
2018-06-27T23:57:35.354Z,18.73
